עמוד ראשי
METAR-TAF:

METAR-TAF

שדות תעופה :

אי הפסחא, צ'ילה

קו רוחב: 27-09S, קו אורך: 109-25W, גובה: 51מטר

תצפית מזג אוויר נוכחית

הדו"ח נערך לפני 21דקות, בשעה 11:00 UTC
רוח 3קשר מכיוון דרום/דרום-מזרח
טמפרטורת 14 צלסיוס
לחות 88%
לחץ 1021 hPa
ראות 10 קילומטר או יותר
מעט עננים בגובה 2500רגל

METAR: SCIP 151100Z 16003KT 9999 FEW025 14/12 Q1021 NOSIG

זמן: 05:21 (11:21 UTC)

תחזית

הדו"ח נערך לפני 7 שעות ו 18דקות, בשעה 04:03 UTC
תחזית בתוקף מ 15 ב 06 UTC עד 16 ב 06 UTC
רוח 4קשר מכיוון דרום-מערב
ראות 10 קילומטר או יותר
עננים פזורים בגובה 3000רגל

TAF: SCIP 150403Z 1506/1606 22004KT 9999 SCT030 TX21/1520Z TN14/1508Z

תצפיות ותחזיות מזג אוויר לגבי יותר מ- 4,000 שדות תעופה ברחבי העולם. דוחות METAR ו- TAF.

התחנות הזמינות מסומנות בנקודות צהובות ואדומות על גבי המפה.

העבר את העכבר לנקודה הצבעונית על מנת לראות את שם התחנה.

לאחר מכן, לחץ כדי לראות את תוכן ואת תחזיות מזג האוויר.

כדי לשנות את המפה: לחץ על הכפתורים הירוקים עם הפלוס השחור כדי להתקרב; על הכפתור הירוק עם המקף כדי להתרחק; או בחיצים הירוקים למפות סמוכות.


METAR-TAF: